sensor_id;sensor_type;location;lat;lon;timestamp;P1;durP1;ratioP1;P2;durP2;ratioP2
15234;SDS011;7720;51.926;4.488;2023-05-07T00:02:18;17.95;;;15.70;;
15234;SDS011;7720;51.926;4.488;2023-05-07T00:07:22;20.08;;;15.85;;
15234;SDS011;7720;51.926;4.488;2023-05-07T00:12:25;16.50;;;13.80;;
15234;SDS011;7720;51.926;4.488;2023-05-07T00:17:30;14.95;;;13.05;;
15234;SDS011;7720;51.926;4.488;2023-05-07T00:22:34;14.70;;;13.07;;
15234;SDS011;7720;51.926;4.488;2023-05-07T00:27:37;15.75;;;13.23;;
15234;SDS011;7720;51.926;4.488;2023-05-07T00:32:42;17.20;;;13.80;;
15234;SDS011;7720;51.926;4.488;2023-05-07T00:37:47;15.95;;;12.70;;
15234;SDS011;7720;51.926;4.488;2023-05-07T00:42:51;15.30;;;13.70;;
15234;SDS011;7720;51.926;4.488;2023-05-07T00:47:59;16.13;;;13.90;;
15234;SDS011;7720;51.926;4.488;2023-05-07T00:53:03;17.13;;;14.13;;
15234;SDS011;7720;51.926;4.488;2023-05-07T00:58:07;17.70;;;15.20;;
15234;SDS011;7720;51.926;4.488;2023-05-07T01:03:12;16.83;;;14.82;;
15234;SDS011;7720;51.926;4.488;2023-05-07T01:08:17;18.10;;;15.57;;
15234;SDS011;7720;51.926;4.488;2023-05-07T01:13:21;16.15;;;14.60;;
15234;SDS011;7720;51.926;4.488;2023-05-07T01:18:26;17.70;;;15.95;;
15234;SDS011;7720;51.926;4.488;2023-05-07T01:23:33;18.83;;;16.83;;
15234;SDS011;7720;51.926;4.488;2023-05-07T01:28:38;19.45;;;17.60;;
15234;SDS011;7720;51.926;4.488;2023-05-07T01:33:41;19.92;;;17.25;;
15234;SDS011;7720;51.926;4.488;2023-05-07T01:38:48;19.77;;;17.67;;
15234;SDS011;7720;51.926;4.488;2023-05-07T01:43:54;20.08;;;18.00;;
15234;SDS011;7720;51.926;4.488;2023-05-07T01:49:00;19.80;;;17.70;;
15234;SDS011;7720;51.926;4.488;2023-05-07T01:54:05;20.00;;;18.00;;
15234;SDS011;7720;51.926;4.488;2023-05-07T01:59:10;20.20;;;17.92;;
15234;SDS011;7720;51.926;4.488;2023-05-07T02:04:15;19.40;;;17.40;;
15234;SDS011;7720;51.926;4.488;2023-05-07T02:09:20;19.85;;;17.75;;
15234;SDS011;7720;51.926;4.488;2023-05-07T02:14:25;22.20;;;19.48;;
15234;SDS011;7720;51.926;4.488;2023-05-07T02:19:29;21.08;;;18.85;;
15234;SDS011;7720;51.926;4.488;2023-05-07T02:24:33;21.92;;;19.65;;
15234;SDS011;7720;51.926;4.488;2023-05-07T02:29:38;22.73;;;20.35;;
15234;SDS011;7720;51.926;4.488;2023-05-07T02:34:41;21.00;;;18.95;;
15234;SDS011;7720;51.926;4.488;2023-05-07T02:39:46;22.00;;;19.80;;
15234;SDS011;7720;51.926;4.488;2023-05-07T02:44:49;21.40;;;19.15;;
15234;SDS011;7720;51.926;4.488;2023-05-07T02:49:53;20.83;;;18.73;;
15234;SDS011;7720;51.926;4.488;2023-05-07T02:54:58;19.83;;;17.73;;
15234;SDS011;7720;51.926;4.488;2023-05-07T03:00:09;18.27;;;16.42;;
15234;SDS011;7720;51.926;4.488;2023-05-07T03:05:18;20.33;;;18.33;;
15234;SDS011;7720;51.926;4.488;2023-05-07T03:10:23;18.25;;;16.45;;
15234;SDS011;7720;51.926;4.488;2023-05-07T03:15:26;19.05;;;16.85;;
15234;SDS011;7720;51.926;4.488;2023-05-07T03:20:29;20.75;;;18.65;;
15234;SDS011;7720;51.926;4.488;2023-05-07T03:25:34;20.70;;;18.70;;
15234;SDS011;7720;51.926;4.488;2023-05-07T03:30:38;18.70;;;16.90;;
15234;SDS011;7720;51.926;4.488;2023-05-07T03:35:41;20.55;;;18.50;;
15234;SDS011;7720;51.926;4.488;2023-05-07T03:40:50;18.85;;;16.77;;
15234;SDS011;7720;51.926;4.488;2023-05-07T03:45:53;19.80;;;17.92;;
15234;SDS011;7720;51.926;4.488;2023-05-07T03:51:00;17.98;;;16.13;;
15234;SDS011;7720;51.926;4.488;2023-05-07T03:56:08;18.48;;;16.55;;
15234;SDS011;7720;51.926;4.488;2023-05-07T04:01:14;17.95;;;16.15;;
15234;SDS011;7720;51.926;4.488;2023-05-07T04:06:17;17.02;;;15.32;;
15234;SDS011;7720;51.926;4.488;2023-05-07T04:11:24;16.08;;;14.48;;
15234;SDS011;7720;51.926;4.488;2023-05-07T04:16:29;15.27;;;13.68;;
15234;SDS011;7720;51.926;4.488;2023-05-07T04:21:32;15.38;;;13.88;;
15234;SDS011;7720;51.926;4.488;2023-05-07T04:26:37;14.40;;;12.93;;
15234;SDS011;7720;51.926;4.488;2023-05-07T04:31:42;14.73;;;13.23;;
15234;SDS011;7720;51.926;4.488;2023-05-07T04:36:46;15.20;;;13.63;;
15234;SDS011;7720;51.926;4.488;2023-05-07T04:41:53;15.15;;;13.18;;
15234;SDS011;7720;51.926;4.488;2023-05-07T04:46:57;13.82;;;12.38;;
15234;SDS011;7720;51.926;4.488;2023-05-07T04:52:00;15.40;;;13.77;;
15234;SDS011;7720;51.926;4.488;2023-05-07T04:57:07;19.98;;;14.50;;
15234;SDS011;7720;51.926;4.488;2023-05-07T05:02:11;15.38;;;13.77;;
15234;SDS011;7720;51.926;4.488;2023-05-07T05:07:14;15.75;;;14.25;;
15234;SDS011;7720;51.926;4.488;2023-05-07T05:12:19;16.42;;;14.73;;
15234;SDS011;7720;51.926;4.488;2023-05-07T05:17:23;16.95;;;14.20;;
15234;SDS011;7720;51.926;4.488;2023-05-07T05:22:26;16.75;;;15.05;;
15234;SDS011;7720;51.926;4.488;2023-05-07T05:27:33;16.48;;;14.80;;
15234;SDS011;7720;51.926;4.488;2023-05-07T05:32:38;17.23;;;15.10;;
15234;SDS011;7720;51.926;4.488;2023-05-07T05:37:41;16.58;;;14.82;;
15234;SDS011;7720;51.926;4.488;2023-05-07T05:42:47;19.30;;;15.65;;
15234;SDS011;7720;51.926;4.488;2023-05-07T05:47:51;16.75;;;15.05;;
15234;SDS011;7720;51.926;4.488;2023-05-07T05:52:55;16.77;;;15.07;;
15234;SDS011;7720;51.926;4.488;2023-05-07T05:58:03;18.15;;;16.25;;
15234;SDS011;7720;51.926;4.488;2023-05-07T06:03:10;19.48;;;16.20;;
15234;SDS011;7720;51.926;4.488;2023-05-07T06:08:16;19.10;;;16.30;;
15234;SDS011;7720;51.926;4.488;2023-05-07T06:13:21;17.73;;;16.00;;
15234;SDS011;7720;51.926;4.488;2023-05-07T06:18:25;17.45;;;15.65;;
15234;SDS011;7720;51.926;4.488;2023-05-07T06:23:29;18.15;;;16.52;;
15234;SDS011;7720;51.926;4.488;2023-05-07T06:28:35;17.45;;;15.73;;
15234;SDS011;7720;51.926;4.488;2023-05-07T06:33:43;17.90;;;16.10;;
15234;SDS011;7720;51.926;4.488;2023-05-07T06:38:49;19.10;;;17.10;;
15234;SDS011;7720;51.926;4.488;2023-05-07T06:43:53;17.67;;;15.88;;
15234;SDS011;7720;51.926;4.488;2023-05-07T13:24:17;20.70;;;13.70;;
15234;SDS011;7720;51.926;4.488;2023-05-07T13:29:21;22.30;;;15.23;;
15234;SDS011;7720;51.926;4.488;2023-05-07T13:34:29;21.83;;;17.08;;
15234;SDS011;7720;51.926;4.488;2023-05-07T13:39:35;23.35;;;17.90;;
15234;SDS011;7720;51.926;4.488;2023-05-07T13:44:38;21.98;;;16.45;;
15234;SDS011;7720;51.926;4.488;2023-05-07T13:49:42;22.50;;;15.73;;
15234;SDS011;7720;51.926;4.488;2023-05-07T13:54:47;22.52;;;15.82;;
15234;SDS011;7720;51.926;4.488;2023-05-07T13:59:53;23.63;;;17.30;;
15234;SDS011;7720;51.926;4.488;2023-05-07T14:04:57;19.25;;;15.48;;
15234;SDS011;7720;51.926;4.488;2023-05-07T14:10:03;21.50;;;16.33;;
15234;SDS011;7720;51.926;4.488;2023-05-07T14:15:07;18.67;;;15.63;;
15234;SDS011;7720;51.926;4.488;2023-05-07T14:20:12;22.23;;;16.63;;
15234;SDS011;7720;51.926;4.488;2023-05-07T14:31:13;21.55;;;17.48;;
15234;SDS011;7720;51.926;4.488;2023-05-07T14:37:18;17.00;;;14.55;;
15234;SDS011;7720;51.926;4.488;2023-05-07T14:43:30;21.83;;;16.20;;
15234;SDS011;7720;51.926;4.488;2023-05-07T14:48:35;21.70;;;15.43;;
15234;SDS011;7720;51.926;4.488;2023-05-07T14:53:39;20.58;;;17.45;;
15234;SDS011;7720;51.926;4.488;2023-05-07T14:58:45;22.33;;;18.60;;
15234;SDS011;7720;51.926;4.488;2023-05-07T15:03:51;22.73;;;18.98;;
15234;SDS011;7720;51.926;4.488;2023-05-07T15:08:56;22.05;;;19.63;;
15234;SDS011;7720;51.926;4.488;2023-05-07T15:13:59;24.45;;;20.42;;
15234;SDS011;7720;51.926;4.488;2023-05-07T15:19:03;28.13;;;22.13;;
15234;SDS011;7720;51.926;4.488;2023-05-07T15:24:07;23.83;;;21.02;;
15234;SDS011;7720;51.926;4.488;2023-05-07T15:29:10;31.73;;;23.85;;
15234;SDS011;7720;51.926;4.488;2023-05-07T15:34:15;31.55;;;27.27;;
15234;SDS011;7720;51.926;4.488;2023-05-07T15:39:19;28.88;;;25.77;;
15234;SDS011;7720;51.926;4.488;2023-05-07T15:44:25;31.55;;;26.33;;
15234;SDS011;7720;51.926;4.488;2023-05-07T15:49:30;30.63;;;26.52;;
15234;SDS011;7720;51.926;4.488;2023-05-07T15:54:34;29.67;;;24.85;;
15234;SDS011;7720;51.926;4.488;2023-05-07T15:59:38;28.20;;;24.95;;
15234;SDS011;7720;51.926;4.488;2023-05-07T16:04:43;31.05;;;25.33;;
15234;SDS011;7720;51.926;4.488;2023-05-07T16:09:47;31.05;;;24.65;;
15234;SDS011;7720;51.926;4.488;2023-05-07T16:14:50;33.38;;;24.23;;
15234;SDS011;7720;51.926;4.488;2023-05-07T16:19:55;27.80;;;24.80;;
15234;SDS011;7720;51.926;4.488;2023-05-07T16:24:59;29.30;;;24.15;;
15234;SDS011;7720;51.926;4.488;2023-05-07T16:30:03;29.92;;;24.48;;
15234;SDS011;7720;51.926;4.488;2023-05-07T16:35:08;28.52;;;24.33;;
15234;SDS011;7720;51.926;4.488;2023-05-07T16:40:13;27.67;;;20.98;;
15234;SDS011;7720;51.926;4.488;2023-05-07T16:45:16;26.15;;;18.67;;
15234;SDS011;7720;51.926;4.488;2023-05-07T16:50:21;24.38;;;18.83;;
15234;SDS011;7720;51.926;4.488;2023-05-07T16:55:24;24.48;;;17.60;;
15234;SDS011;7720;51.926;4.488;2023-05-07T17:00:27;24.67;;;19.15;;
15234;SDS011;7720;51.926;4.488;2023-05-07T17:05:51;26.42;;;20.67;;
15234;SDS011;7720;51.926;4.488;2023-05-07T17:10:55;28.33;;;23.30;;
15234;SDS011;7720;51.926;4.488;2023-05-07T17:15:58;29.45;;;23.98;;
15234;SDS011;7720;51.926;4.488;2023-05-07T17:21:02;31.65;;;25.02;;
15234;SDS011;7720;51.926;4.488;2023-05-07T17:26:10;39.90;;;31.00;;
15234;SDS011;7720;51.926;4.488;2023-05-07T17:31:14;34.28;;;28.60;;
15234;SDS011;7720;51.926;4.488;2023-05-07T17:36:18;39.08;;;29.17;;
15234;SDS011;7720;51.926;4.488;2023-05-07T17:41:21;36.63;;;28.33;;
15234;SDS011;7720;51.926;4.488;2023-05-07T17:46:25;34.25;;;27.20;;
15234;SDS011;7720;51.926;4.488;2023-05-07T17:51:30;31.60;;;25.77;;
15234;SDS011;7720;51.926;4.488;2023-05-07T17:56:53;29.45;;;24.55;;
15234;SDS011;7720;51.926;4.488;2023-05-07T18:01:56;30.77;;;21.88;;
15234;SDS011;7720;51.926;4.488;2023-05-07T18:07:01;28.48;;;22.77;;
15234;SDS011;7720;51.926;4.488;2023-05-07T18:12:04;29.50;;;22.35;;
15234;SDS011;7720;51.926;4.488;2023-05-07T18:17:07;22.88;;;20.30;;
15234;SDS011;7720;51.926;4.488;2023-05-07T18:22:12;24.83;;;19.63;;
15234;SDS011;7720;51.926;4.488;2023-05-07T18:27:15;27.75;;;18.40;;
15234;SDS011;7720;51.926;4.488;2023-05-07T18:32:19;27.50;;;18.45;;
15234;SDS011;7720;51.926;4.488;2023-05-07T18:37:24;23.52;;;16.45;;
15234;SDS011;7720;51.926;4.488;2023-05-07T18:42:27;22.67;;;16.05;;
15234;SDS011;7720;51.926;4.488;2023-05-07T18:47:31;26.75;;;15.98;;
15234;SDS011;7720;51.926;4.488;2023-05-07T18:52:35;24.90;;;16.25;;
15234;SDS011;7720;51.926;4.488;2023-05-07T18:57:39;30.98;;;19.15;;
15234;SDS011;7720;51.926;4.488;2023-05-07T19:02:43;25.20;;;18.23;;
15234;SDS011;7720;51.926;4.488;2023-05-07T19:07:47;28.58;;;20.88;;
15234;SDS011;7720;51.926;4.488;2023-05-07T19:12:51;23.42;;;17.88;;
15234;SDS011;7720;51.926;4.488;2023-05-07T19:17:56;26.80;;;22.05;;
15234;SDS011;7720;51.926;4.488;2023-05-07T19:23:00;34.60;;;26.08;;
15234;SDS011;7720;51.926;4.488;2023-05-07T19:28:03;32.47;;;23.42;;
15234;SDS011;7720;51.926;4.488;2023-05-07T19:33:07;31.20;;;22.85;;
15234;SDS011;7720;51.926;4.488;2023-05-07T19:38:11;29.38;;;22.40;;
15234;SDS011;7720;51.926;4.488;2023-05-07T19:43:14;29.13;;;22.67;;
15234;SDS011;7720;51.926;4.488;2023-05-07T19:48:17;31.73;;;26.75;;
15234;SDS011;7720;51.926;4.488;2023-05-07T19:53:22;31.05;;;27.70;;
15234;SDS011;7720;51.926;4.488;2023-05-07T19:58:25;33.22;;;28.88;;
15234;SDS011;7720;51.926;4.488;2023-05-07T20:03:29;34.95;;;29.20;;
15234;SDS011;7720;51.926;4.488;2023-05-07T20:08:34;33.95;;;28.40;;
15234;SDS011;7720;51.926;4.488;2023-05-07T20:13:37;34.65;;;29.55;;
15234;SDS011;7720;51.926;4.488;2023-05-07T20:18:40;33.20;;;29.00;;
15234;SDS011;7720;51.926;4.488;2023-05-07T20:23:48;33.10;;;29.63;;
15234;SDS011;7720;51.926;4.488;2023-05-07T20:28:56;36.67;;;32.00;;
15234;SDS011;7720;51.926;4.488;2023-05-07T20:34:00;37.55;;;32.90;;
15234;SDS011;7720;51.926;4.488;2023-05-07T20:39:04;36.25;;;32.00;;
15234;SDS011;7720;51.926;4.488;2023-05-07T20:44:08;36.92;;;32.63;;
15234;SDS011;7720;51.926;4.488;2023-05-07T20:49:15;35.92;;;31.70;;
15234;SDS011;7720;51.926;4.488;2023-05-07T20:54:19;37.80;;;33.67;;
15234;SDS011;7720;51.926;4.488;2023-05-07T20:59:24;40.85;;;35.95;;
15234;SDS011;7720;51.926;4.488;2023-05-07T21:04:27;40.67;;;34.95;;
15234;SDS011;7720;51.926;4.488;2023-05-07T21:09:34;38.30;;;32.70;;
15234;SDS011;7720;51.926;4.488;2023-05-07T21:14:37;38.80;;;33.05;;
15234;SDS011;7720;51.926;4.488;2023-05-07T21:19:41;36.60;;;32.28;;
15234;SDS011;7720;51.926;4.488;2023-05-07T21:24:46;35.88;;;31.92;;
15234;SDS011;7720;51.926;4.488;2023-05-07T21:29:49;33.15;;;27.95;;
15234;SDS011;7720;51.926;4.488;2023-05-07T21:34:52;30.30;;;26.05;;
15234;SDS011;7720;51.926;4.488;2023-05-07T21:39:56;29.45;;;26.25;;
15234;SDS011;7720;51.926;4.488;2023-05-07T21:45:00;32.13;;;26.00;;
15234;SDS011;7720;51.926;4.488;2023-05-07T21:50:06;35.92;;;28.52;;
15234;SDS011;7720;51.926;4.488;2023-05-07T21:55:11;29.45;;;26.25;;
15234;SDS011;7720;51.926;4.488;2023-05-07T22:00:15;36.88;;;28.58;;
15234;SDS011;7720;51.926;4.488;2023-05-07T22:05:19;34.03;;;29.00;;
15234;SDS011;7720;51.926;4.488;2023-05-07T22:10:23;35.88;;;29.17;;
15234;SDS011;7720;51.926;4.488;2023-05-07T22:15:27;32.70;;;29.20;;
15234;SDS011;7720;51.926;4.488;2023-05-07T22:20:30;37.67;;;31.40;;
15234;SDS011;7720;51.926;4.488;2023-05-07T22:25:35;34.45;;;29.25;;
15234;SDS011;7720;51.926;4.488;2023-05-07T22:30:38;36.13;;;30.15;;
15234;SDS011;7720;51.926;4.488;2023-05-07T22:35:42;39.10;;;33.95;;
15234;SDS011;7720;51.926;4.488;2023-05-07T22:40:46;38.10;;;32.25;;
15234;SDS011;7720;51.926;4.488;2023-05-07T22:45:56;37.17;;;33.10;;
15234;SDS011;7720;51.926;4.488;2023-05-07T22:50:59;86.63;;;64.53;;
15234;SDS011;7720;51.926;4.488;2023-05-07T22:56:05;43.70;;;38.97;;
15234;SDS011;7720;51.926;4.488;2023-05-07T23:01:10;42.17;;;36.88;;
15234;SDS011;7720;51.926;4.488;2023-05-07T23:06:14;39.08;;;33.40;;
15234;SDS011;7720;51.926;4.488;2023-05-07T23:11:18;41.53;;;35.38;;
15234;SDS011;7720;51.926;4.488;2023-05-07T23:16:22;40.80;;;35.30;;
15234;SDS011;7720;51.926;4.488;2023-05-07T23:21:26;48.15;;;41.15;;
15234;SDS011;7720;51.926;4.488;2023-05-07T23:26:30;45.63;;;40.47;;
15234;SDS011;7720;51.926;4.488;2023-05-07T23:31:33;46.25;;;38.72;;
15234;SDS011;7720;51.926;4.488;2023-05-07T23:36:37;45.10;;;38.67;;
15234;SDS011;7720;51.926;4.488;2023-05-07T23:41:41;45.45;;;40.42;;
15234;SDS011;7720;51.926;4.488;2023-05-07T23:46:45;45.53;;;38.88;;
15234;SDS011;7720;51.926;4.488;2023-05-07T23:51:49;52.65;;;42.65;;
15234;SDS011;7720;51.926;4.488;2023-05-07T23:56:53;46.15;;;41.17;;
